ADDS METAR Data INFO
IDs: Format: Raw Decoded Include TAF

Data at: 0911 UTC 23 Jul 2016

Region: TOP
KATL 230852Z 21003KT 10SM FEW050 FEW250 25/22 A3004 RMK AO2 SLP159 T02500217 55007

KBOS 230854Z 26006KT 10SM CLR 24/20 A2974 RMK AO2 SLP071 T02440200 55000

KBWI 230854Z 28008KT 9SM CLR 25/22 A2992 RMK AO2 SLP129 T02500217 51002

KCLE 230851Z 22005KT 7SM FEW250 24/22 A3000 RMK AO2 SLP150 T02440217 53002 $

KCLT 230852Z 00000KT 10SM BKN250 22/19 A3001 RMK AO2 SLP151 T02220194 56012

KCVG 230852Z 00000KT 8SM FEW035 SCT250 23/22 A3001 RMK AO2 SLP152 T02280217 56008

KDCA 230852Z 23004KT 10SM CLR 27/23 A2993 RMK AO2 SLP136 T02670228 53002

KDEN 230853Z 23008KT 10SM FEW220 21/09 A3011 RMK AO2 SLP097 T02110094 58003

KDFW 230853Z 17006KT 10SM CLR 28/21 A2996 RMK AO2 SLP133 T02830206 55006

KDTW 230853Z 29003KT 10SM CLR 23/21 A2998 RMK AO2 SLP144 T02330206 58001

KEWR 230851Z 28007KT 10SM FEW250 27/18 A2983 RMK AO2 SLP102 T02720178 53005

KFLL 230853Z 34004KT 10SM FEW030 FEW250 25/22 A3001 RMK AO2 SLP160 T02500222 56008

KIAD 230852Z VRB03KT 10SM CLR 23/21 A2995 RMK AO2 SLP137 T02280211 53002

KIAH 230853Z 00000KT 10SM CLR 27/24 A2998 RMK AO2 SLP149 T02720239 56009

KJFK 230851Z 24008KT 10SM FEW250 26/22 A2983 RMK AO2 SLP102 T02560217 53003

KLAS 230856Z 18007KT 10SM FEW200 34/M04 A2982 RMK AO2 SLP062 T03391039 58004

KLAX 230853Z 10003KT 10SM FEW015 SCT200 22/15 A2980 RMK AO2 SLP088 FU FEW015 T02220150 58008

KLGA 230851Z 31011KT 10SM FEW250 29/18 A2982 RMK AO2 SLP098 T02890183 53004

KMCO 230853Z 00000KT 10SM FEW015 BKN250 23/22 A3003 RMK AO2 SLP167 T02330217 56010

KMDW 230853Z 27004KT 10SM BKN030 27/24 A2998 RMK AO2 SLP140 T02720239 55003

KMEM 230854Z 03007KT 10SM TS SCT043CB OVC150 28/23 A2998 RMK AO2 SLP147 FRQ LTGICCG NW-NE TS NW-NE MOV S T02780228 55004

KMIA 230853Z 01004KT 10SM FEW020 SCT250 25/23 A3002 RMK AO2 SLP165 T02500233 55006 $

KMSP 230853Z 08006KT 10SM FEW300 25/19 A2996 RMK AO2 SLP137 T02500189 55008

KORD 230851Z 25003KT 10SM FEW032 SCT050 26/24 A2998 RMK AO2 SLP145 T02610239 58003

KPDX 230853Z 33007KT 10SM FEW050 OVC220 16/12 A3027 RMK AO2 SLP250 T01610122 56008

KPHL 230854Z 26006KT 10SM CLR 25/20 A2988 RMK AO2 SLP117 T02500200 53004 $

KPHX 230851Z 27003KT 10SM FEW170 BKN250 36/12 A2980 RMK AO2 SLP067 T03560117 58001 $

KPIT 230851Z 23003KT 10SM BKN048 BKN230 22/19 A3001 RMK AO2 SLP157 T02220194 56001

KSAN 230851Z 18004KT 10SM CLR 21/19 A2984 RMK AO2 SLP104 T02060194 58006

KSEA 230853Z 22004KT 10SM BKN014 BKN030 16/13 A3028 RMK AO2 SLP259 T01560133 58003

KSFO 230856Z 29007KT 10SM CLR 14/10 A3000 RMK AO2 SLP158 T01390100 58013

KSLC 230854Z COR 300/05KT 10SM BKN130 22/06 A3009

KSTL 230851Z 00000KT 10SM SCT250 26/22 A2999 RMK AO2 SLP143 T02560222 58003

KTPA 230853Z 00000KT 10SM BKN280 24/22 A3003 RMK AO2 SLP168 T02390222 56008